Terminal Aerodrome Forecast
Issued by NWS

Home | Current Version | Previous Version | Text Only | Print | Product List | Glossary On
Versions: 1 2 3 4 5 6 7 8 9 10 11 12 13 14 15 16 17
000
FTUS43 KLSX 280721 AAA
TAFCPS
TAF AMD
KCPS 280721Z 2807/2906 15008KT P6SM FEW025 SCT100 BKN250
      TEMPO 2808/2812 BKN025
     FM281500 17010KT P6SM SCT025 BKN050
     FM290300 16005KT P6SM VCTS BKN050CB=

USA.gov is the U.S. government's official web portal to all federal, state and local government web resources and services.